Time;durP1;ratioP1;P1;durP2;ratioP2;P2;SDS_P1;SDS_P2;PMS_P1;PMS_P2;Temp;Humidity;BMP_temperature;BMP_pressure;BME280_temperature;BME280_humidity;BME280_pressure;Samples;Min_cycle;Max_cycle;Signal;HPM_P1;HPM_P2
2024/02/10 00:00:19;;;;;;;4.20;3.63;;;;;;;9.67;98.27;93043.59;4892106;29;20322;-77
2024/02/10 00:02:48;;;;;;;5.03;3.80;;;;;;;9.62;98.91;93046.78;4897556;29;20720;-78
2024/02/10 00:05:14;;;;;;;5.17;4.50;;;;;;;9.61;98.11;93045.19;4888981;29;21144;-79
2024/02/10 00:07:40;;;;;;;9.77;4.40;;;;;;;9.63;97.55;93048.41;4901096;29;20267;-79
2024/02/10 00:10:05;;;;;;;4.73;4.13;;;;;;;9.76;97.30;93043.16;4915878;29;20267;-78
2024/02/10 00:12:31;;;;;;;5.83;3.73;;;;;;;9.77;96.56;93044.75;4907008;29;20647;-76
2024/02/10 00:14:57;;;;;;;5.33;3.43;;;;;;;9.62;98.18;93044.19;4890537;29;20188;-78
2024/02/10 00:17:26;;;;;;;5.63;3.70;;;;;;;9.56;98.25;93045.81;4887294;29;20243;-79
2024/02/10 00:19:55;;;;;;;4.53;3.70;;;;;;;9.77;97.02;93049.94;4891285;29;20199;-80
2024/02/10 00:22:24;;;;;;;5.77;3.63;;;;;;;9.79;96.48;93045.34;4891246;29;20210;-78
2024/02/10 00:24:49;;;;;;;4.07;2.73;;;;;;;9.74;97.02;93049.56;4890903;29;20614;-79
2024/02/10 00:27:18;;;;;;;4.60;3.60;;;;;;;9.72;97.30;93049.78;4907851;29;20187;-80
2024/02/10 00:29:45;;;;;;;3.50;3.20;;;;;;;9.79;96.64;93044.56;4910973;29;20183;-78
2024/02/10 00:32:10;;;;;;;4.67;3.13;;;;;;;9.76;96.90;93048.34;4903151;29;20331;-77
2024/02/10 00:34:39;;;;;;;4.07;3.37;;;;;;;9.80;96.57;93043.53;4909496;29;20294;-78
2024/02/10 00:37:05;;;;;;;4.47;3.13;;;;;;;9.82;96.51;93042.38;4908187;29;20179;-79
2024/02/10 00:39:31;;;;;;;5.37;3.30;;;;;;;9.88;95.84;93038.16;4911281;29;20190;-79
2024/02/10 00:41:56;;;;;;;4.10;3.20;;;;;;;9.80;96.05;93044.34;4900110;29;20196;-78
2024/02/10 00:44:22;;;;;;;6.00;4.00;;;;;;;9.84;96.41;93031.78;4893000;29;20190;-77
2024/02/10 00:46:48;;;;;;;4.70;3.10;;;;;;;9.83;95.68;93033.59;4897844;29;20604;-77
2024/02/10 00:49:13;;;;;;;5.60;3.77;;;;;;;9.79;96.01;93036.78;4895496;29;20183;-78
2024/02/10 00:51:39;;;;;;;5.97;3.20;;;;;;;9.84;96.03;93024.81;4903145;29;20315;-78
2024/02/10 00:54:04;;;;;;;5.10;4.57;;;;;;;9.74;96.70;93021.84;4909315;29;20203;-79
2024/02/10 00:56:30;;;;;;;6.57;4.37;;;;;;;9.77;96.17;93018.84;4886436;29;20202;-77
2024/02/10 00:58:55;;;;;;;5.80;4.50;;;;;;;9.69;96.80;93015.69;4905986;29;20617;-79
2024/02/10 01:01:21;;;;;;;6.27;4.40;;;;;;;9.78;96.32;93012.66;4909315;29;20205;-77
2024/02/10 01:03:47;;;;;;;6.23;4.13;;;;;;;9.69;96.69;93010.50;4895468;29;20222;-79
2024/02/10 01:06:20;;;;;;;6.63;4.03;;;;;;;9.67;97.23;92999.53;4893417;29;20212;-78
2024/02/10 01:08:46;;;;;;;6.00;3.80;;;;;;;9.60;97.16;93002.16;4907617;29;20203;-78
2024/02/10 01:11:23;;;;;;;6.53;3.77;;;;;;;9.60;97.52;92995.16;4895895;29;20610;-77
2024/02/10 01:13:49;;;;;;;6.17;3.77;;;;;;;9.66;97.20;92988.38;4892602;29;20276;-78
2024/02/10 01:16:15;;;;;;;5.80;3.97;;;;;;;9.62;97.11;92984.59;4881077;29;20282;-79
2024/02/10 01:18:42;;;;;;;5.23;3.00;;;;;;;9.57;96.80;92987.00;4894250;29;20532;-78
2024/02/10 01:21:10;;;;;;;4.90;2.80;;;;;;;9.62;96.88;92984.59;4887968;29;20298;-79
2024/02/10 01:23:40;;;;;;;4.13;2.80;;;;;;;9.59;97.35;92985.00;4905006;29;20552;-77
2024/02/10 01:26:09;;;;;;;2.80;2.40;;;;;;;9.50;97.30;92983.63;4907109;29;20274;-78
2024/02/10 01:28:35;;;;;;;4.50;2.70;;;;;;;9.60;96.48;92981.41;4897359;29;20628;-78
2024/02/10 01:31:03;;;;;;;2.20;1.80;;;;;;;9.46;97.21;92972.09;4885330;29;20705;-79
2024/02/10 01:33:29;;;;;;;2.40;1.90;;;;;;;9.48;96.41;92970.91;4888280;29;20567;-79
2024/02/10 01:35:54;;;;;;;2.60;2.10;;;;;;;9.61;96.13;92973.44;4910738;29;20195;-77
2024/02/10 01:38:20;;;;;;;2.70;1.80;;;;;;;9.64;95.66;92972.25;4910648;29;20266;-80
2024/02/10 01:40:46;;;;;;;1.90;1.60;;;;;;;9.49;95.84;92962.13;4895145;29;20562;-79
2024/02/10 01:43:11;;;;;;;2.37;1.57;;;;;;;9.56;95.40;92964.69;4879357;29;20211;-79
2024/02/10 01:45:38;;;;;;;2.67;1.90;;;;;;;9.64;94.86;92954.91;4910222;29;20210;-78
2024/02/10 01:48:08;;;;;;;2.83;2.03;;;;;;;9.64;94.52;92954.91;4904574;29;20190;-80
2024/02/10 01:50:34;;;;;;;3.40;2.00;;;;;;;9.63;94.39;92945.53;4903839;29;20195;-77
2024/02/10 01:53:00;;;;;;;2.63;2.40;;;;;;;9.76;93.59;92949.88;4890065;29;20274;-78
2024/02/10 01:55:25;;;;;;;2.07;1.87;;;;;;;9.49;95.32;92944.00;4879009;29;20315;-76
2024/02/10 01:57:57;;;;;;;1.80;1.40;;;;;;;9.62;94.42;92937.94;4901033;29;20284;-77
2024/02/10 02:00:25;;;;;;;2.33;1.70;;;;;;;9.56;94.04;92951.75;4892023;29;20599;-78
2024/02/10 02:02:50;;;;;;;1.60;1.50;;;;;;;9.59;94.37;92943.56;4909529;29;20203;-78
2024/02/10 02:05:18;;;;;;;1.53;1.40;;;;;;;9.67;93.52;92945.13;4906027;29;20218;-79
2024/02/10 02:07:44;;;;;;;1.53;1.43;;;;;;;9.62;93.55;92946.53;4884367;29;20533;-79
2024/02/10 02:10:10;;;;;;;2.13;1.60;;;;;;;9.78;92.81;92937.50;4911874;29;20271;-78
2024/02/10 02:12:46;;;;;;;2.50;1.73;;;;;;;9.73;93.97;92947.69;4890598;29;20286;-79
2024/02/10 02:15:12;;;;;;;1.80;1.50;;;;;;;9.65;93.65;92940.16;4904447;29;20230;-79
2024/02/10 02:17:37;;;;;;;1.30;1.20;;;;;;;9.64;93.58;92941.94;4898083;29;20554;-77
2024/02/10 02:20:03;;;;;;;1.67;1.40;;;;;;;9.79;92.61;92941.66;4895274;29;20251;-78
2024/02/10 02:22:28;;;;;;;2.20;1.23;;;;;;;9.78;92.40;92937.50;4888070;29;20498;-79
2024/02/10 02:24:54;;;;;;;2.67;1.47;;;;;;;9.82;92.13;92935.31;4888230;29;20214;-78
2024/02/10 02:27:19;;;;;;;2.17;1.90;;;;;;;9.87;91.97;92932.88;4878661;29;20183;-78
2024/02/10 02:29:44;;;;;;;2.27;1.77;;;;;;;9.69;93.13;92938.72;4908900;29;20255;-78
2024/02/10 02:32:10;;;;;;;1.70;1.60;;;;;;;9.86;92.41;92926.09;4885287;29;20203;-78
2024/02/10 02:34:36;;;;;;;2.90;1.93;;;;;;;9.78;92.62;92929.72;4889671;29;20191;-79
2024/02/10 02:37:02;;;;;;;4.47;1.90;;;;;;;9.73;92.77;92921.78;4906476;29;20183;-79
2024/02/10 02:39:28;;;;;;;2.20;2.00;;;;;;;9.72;92.52;92915.00;4908411;29;20176;-79
2024/02/10 02:41:59;;;;;;;3.67;2.30;;;;;;;9.71;92.44;92910.81;4882410;29;20230;-78
2024/02/10 02:44:26;;;;;;;3.17;2.57;;;;;;;9.67;93.26;92914.81;4899956;29;20184;-77
2024/02/10 02:46:51;;;;;;;3.73;3.20;;;;;;;9.64;93.77;92903.09;4896235;29;20217;-77
2024/02/10 02:49:16;;;;;;;3.87;2.73;;;;;;;9.62;93.78;92905.06;4893769;29;20204;-78
2024/02/10 02:51:42;;;;;;;3.80;2.63;;;;;;;9.59;93.75;92902.09;4877972;29;20194;-78
2024/02/10 02:54:10;;;;;;;4.47;2.90;;;;;;;9.55;94.50;92887.97;4891325;29;20556;-78
2024/02/10 02:56:36;;;;;;;3.00;2.30;;;;;;;9.61;94.37;92887.13;4885507;29;20190;-79
2024/02/10 02:59:01;;;;;;;5.40;2.70;;;;;;;9.60;94.71;92890.72;4890341;29;20551;-79
2024/02/10 03:01:26;;;;;;;5.23;2.60;;;;;;;9.57;94.68;92883.38;4878106;29;20244;-78
2024/02/10 03:03:52;;;;;;;2.97;2.60;;;;;;;9.55;94.29;92875.03;4895131;29;20235;-79
2024/02/10 03:06:18;;;;;;;2.90;2.50;;;;;;;9.51;94.31;92873.84;4878663;29;20314;-78
2024/02/10 03:08:45;;;;;;;2.90;2.60;;;;;;;9.57;94.59;92870.44;4894916;29;20674;-78
2024/02/10 03:11:17;;;;;;;3.67;3.10;;;;;;;9.56;94.84;92872.22;4889314;29;20206;-78
2024/02/10 03:13:52;;;;;;;3.60;3.07;;;;;;;9.50;94.40;92862.69;4907559;29;20242;-77
2024/02/10 03:16:19;;;;;;;5.13;2.87;;;;;;;9.47;94.62;92862.31;4894562;29;20694;-77
2024/02/10 03:18:47;;;;;;;4.63;3.20;;;;;;;9.49;94.66;92866.28;4907249;29;20266;-78
2024/02/10 03:21:13;;;;;;;6.77;3.30;;;;;;;9.42;93.88;92869.88;4901870;29;20568;-79
2024/02/10 03:23:39;;;;;;;3.80;3.20;;;;;;;9.34;94.75;92869.13;4895682;29;20211;-77
2024/02/10 03:26:05;;;;;;;3.97;3.20;;;;;;;9.31;94.83;92868.75;4890111;29;20214;-79
2024/02/10 03:28:33;;;;;;;3.40;2.83;;;;;;;9.20;94.47;92871.97;4914917;29;20544;-79
2024/02/10 03:31:00;;;;;;;4.87;2.93;;;;;;;9.08;95.45;92869.19;4907527;29;20613;-78
2024/02/10 03:33:26;;;;;;;3.03;2.73;;;;;;;9.14;95.09;92875.38;4890221;29;20215;-79
2024/02/10 03:35:53;;;;;;;4.50;2.77;;;;;;;9.00;94.91;92866.81;4895229;29;20908;-78
2024/02/10 03:38:20;;;;;;;3.97;2.90;;;;;;;9.02;95.13;92870.03;4897727;29;20203;-79
2024/02/10 03:40:46;;;;;;;3.57;2.50;;;;;;;8.96;94.96;92870.84;4896792;29;20215;-78
2024/02/10 03:43:12;;;;;;;3.27;2.23;;;;;;;9.01;94.77;92871.81;4887135;29;20634;-79
2024/02/10 03:45:38;;;;;;;2.90;2.20;;;;;;;9.03;95.22;92869.03;4913400;29;20231;-78
2024/02/10 03:48:05;;;;;;;2.20;2.10;;;;;;;9.00;95.07;92866.81;4890835;29;20218;-78
2024/02/10 03:50:31;;;;;;;2.50;2.30;;;;;;;8.98;95.54;92868.84;4907239;29;20192;-78
2024/02/10 03:52:59;;;;;;;2.93;2.03;;;;;;;8.98;95.35;92858.47;4903848;29;20252;-78
2024/02/10 03:55:24;;;;;;;2.10;1.83;;;;;;;8.96;94.82;92852.72;4910452;29;20236;-77
2024/02/10 03:57:53;;;;;;;1.67;1.57;;;;;;;8.93;95.70;92855.72;4905224;29;20207;-79
2024/02/10 04:00:24;;;;;;;1.40;1.30;;;;;;;9.04;95.07;92860.25;4882913;29;20194;-79
2024/02/10 04:02:49;;;;;;;1.87;1.20;;;;;;;9.05;94.19;92854.88;4910861;29;20293;-77
2024/02/10 04:05:14;;;;;;;2.07;1.37;;;;;;;8.99;93.18;92860.06;4897865;29;20211;-77
2024/02/10 04:07:40;;;;;;;1.30;1.20;;;;;;;8.93;93.47;92853.13;4903342;29;20258;-79
2024/02/10 04:10:12;;;;;;;1.10;1.00;;;;;;;8.81;94.04;92855.53;4895610;29;20550;-78
2024/02/10 04:12:37;;;;;;;1.50;1.23;;;;;;;8.76;94.85;92860.53;4892477;29;20246;-78
2024/02/10 04:15:04;;;;;;;3.63;1.30;;;;;;;8.71;94.09;92863.69;4909054;29;20200;-76
2024/02/10 04:17:29;;;;;;;1.30;1.20;;;;;;;8.71;94.10;92862.91;4901695;29;20194;-78
2024/02/10 04:19:57;;;;;;;1.40;1.30;;;;;;;8.67;94.45;92857.34;4890689;29;20200;-77
2024/02/10 04:22:23;;;;;;;2.77;1.10;;;;;;;8.57;94.88;92864.72;4888969;29;20285;-78
2024/02/10 04:24:53;;;;;;;1.00;0.80;;;;;;;8.62;94.56;92867.50;4890971;29;20187;-78
2024/02/10 04:27:18;;;;;;;2.23;1.30;;;;;;;8.65;94.07;92868.88;4881293;29;20211;-79
2024/02/10 04:29:44;;;;;;;3.23;1.20;;;;;;;8.72;93.69;92870.47;4911739;29;20175;-78
2024/02/10 04:32:09;;;;;;;3.77;1.00;;;;;;;8.70;93.51;92869.09;4901571;29;20211;-78
2024/02/10 04:34:34;;;;;;;0.97;0.90;;;;;;;8.63;93.25;92873.47;4909879;29;20274;-78
2024/02/10 04:36:59;;;;;;;1.30;1.20;;;;;;;8.56;92.89;92870.88;4891574;29;20274;-78
2024/02/10 04:39:26;;;;;;;1.00;0.90;;;;;;;8.48;92.96;92869.31;4908426;29;20196;-78
2024/02/10 04:41:52;;;;;;;1.63;1.30;;;;;;;8.42;92.92;92866.72;4901764;29;20196;-79
2024/02/10 04:44:20;;;;;;;1.47;0.80;;;;;;;8.40;93.18;92869.50;4898779;29;20187;-77
2024/02/10 04:46:45;;;;;;;1.37;0.90;;;;;;;8.31;93.30;92880.22;4897068;29;20212;-78
2024/02/10 04:49:11;;;;;;;1.50;1.00;;;;;;;8.29;93.70;92874.44;4893721;29;20674;-79
2024/02/10 04:51:36;;;;;;;1.20;0.90;;;;;;;8.24;93.46;92873.25;4904143;29;20210;-79
2024/02/10 04:54:06;;;;;;;0.80;0.80;;;;;;;8.23;93.63;92874.25;4890345;29;20191;-79
2024/02/10 04:56:33;;;;;;;1.07;0.80;;;;;;;8.11;93.17;92868.06;4879629;29;20206;-79
2024/02/10 04:58:59;;;;;;;1.63;1.53;;;;;;;7.98;94.05;92868.06;4904515;29;20808;-77
2024/02/10 05:01:31;;;;;;;4.73;2.00;;;;;;;8.03;94.57;92870.84;4879827;29;20191;-78
2024/02/10 05:03:57;;;;;;;2.53;2.20;;;;;;;8.05;94.19;92865.50;4912868;29;20260;-78
2024/02/10 05:06:22;;;;;;;3.10;2.80;;;;;;;8.02;94.13;92858.91;4887646;29;20259;-78
2024/02/10 05:08:48;;;;;;;2.83;2.20;;;;;;;7.92;94.01;92861.09;4901480;29;20611;-77
2024/02/10 05:11:13;;;;;;;2.13;1.60;;;;;;;7.91;93.96;92859.50;4906962;29;20184;-79
2024/02/10 05:13:38;;;;;;;2.70;2.50;;;;;;;7.83;94.54;92865.63;4909663;29;20285;-77
2024/02/10 05:16:05;;;;;;;4.30;3.63;;;;;;;7.83;95.68;92864.84;4904625;29;20200;-78
2024/02/10 05:18:31;;;;;;;8.07;5.80;;;;;;;7.78;96.56;92860.28;4886553;29;20271;-78
2024/02/10 05:20:57;;;;;;;7.67;5.93;;;;;;;7.84;96.49;92863.84;4891579;29;20212;-77
2024/02/10 05:23:23;;;;;;;6.87;5.60;;;;;;;7.88;96.68;92867.66;4907325;29;20213;-78
2024/02/10 05:25:48;;;;;;;6.67;5.80;;;;;;;7.96;95.95;92867.47;4888434;29;20206;-78
2024/02/10 05:28:15;;;;;;;7.27;5.90;;;;;;;7.91;96.42;92862.09;4895500;29;20187;-78
2024/02/10 05:30:40;;;;;;;5.87;5.27;;;;;;;7.99;96.82;92863.69;4890570;29;20544;-78
2024/02/10 05:33:05;;;;;;;6.67;5.67;;;;;;;8.00;96.61;92858.31;4901828;29;20295;-78
2024/02/10 05:35:31;;;;;;;7.63;5.87;;;;;;;7.99;97.68;92859.31;4909720;29;20247;-78
2024/02/10 05:37:58;;;;;;;6.77;5.70;;;;;;;8.02;96.46;92852.94;4906776;29;20187;-80
2024/02/10 05:40:25;;;;;;;7.70;6.70;;;;;;;7.99;97.09;92850.75;4878032;29;20191;-78
2024/02/10 05:42:51;;;;;;;10.50;6.50;;;;;;;8.07;96.51;92848.78;4900924;29;20212;-78
2024/02/10 05:45:20;;;;;;;7.00;6.23;;;;;;;8.05;96.60;92850.00;4893710;29;20217;-77
2024/02/10 05:47:50;;;;;;;10.13;7.50;;;;;;;8.06;96.73;92849.00;4878704;29;20183;-79
2024/02/10 05:50:17;;;;;;;9.03;6.93;;;;;;;8.09;96.44;92849.38;4873126;29;20218;-78
2024/02/10 05:52:43;;;;;;;9.17;7.43;;;;;;;8.11;96.40;92854.34;4905119;29;20207;-79
2024/02/10 05:55:14;;;;;;;10.07;7.77;;;;;;;8.13;97.72;92855.75;4910432;29;20184;-79
2024/02/10 05:57:39;;;;;;;7.80;6.70;;;;;;;8.15;97.41;92856.34;4876721;29;20211;-77
2024/02/10 06:00:09;;;;;;;9.97;7.20;;;;;;;8.19;96.75;92848.97;4892293;29;20195;-78
2024/02/10 06:02:38;;;;;;;12.03;8.47;;;;;;;8.01;98.75;92854.72;4906558;29;20576;-79
2024/02/10 06:05:05;;;;;;;10.17;8.57;;;;;;;8.13;98.45;92863.50;4892831;29;20262;-78
2024/02/10 06:07:35;;;;;;;9.87;7.70;;;;;;;8.10;99.21;92858.72;4885023;29;20564;-78
2024/02/10 06:10:00;;;;;;;8.03;6.77;;;;;;;8.23;98.36;92866.50;4893673;29;20267;-79
2024/02/10 06:12:27;;;;;;;8.70;6.67;;;;;;;8.27;97.33;92855.75;4908340;29;20286;-78
2024/02/10 06:14:52;;;;;;;6.20;5.20;;;;;;;8.34;97.19;92859.13;4889325;29;20191;-79
2024/02/10 06:17:23;;;;;;;5.53;4.70;;;;;;;8.29;97.69;92864.09;4893962;29;20254;-78
2024/02/10 06:19:50;;;;;;;5.70;5.10;;;;;;;8.32;97.81;92861.13;4889627;29;20274;-80
2024/02/10 06:22:18;;;;;;;6.77;5.93;;;;;;;8.36;97.46;92864.94;4887516;29;20231;-77
2024/02/10 06:24:44;;;;;;;9.00;6.77;;;;;;;8.35;97.38;92864.13;4905967;29;20179;-77
2024/02/10 06:27:09;;;;;;;8.90;7.67;;;;;;;8.31;97.50;92868.09;4905860;29;20184;-78
2024/02/10 06:29:35;;;;;;;7.73;6.77;;;;;;;8.31;97.81;92862.13;4878873;29;20191;-77
2024/02/10 06:32:03;;;;;;;9.47;7.93;;;;;;;8.36;98.09;92867.50;4902056;29;20200;-77
2024/02/10 06:34:28;;;;;;;9.20;7.50;;;;;;;8.39;97.45;92864.50;4905002;29;20213;-79
2024/02/10 06:36:54;;;;;;;9.57;7.93;;;;;;;8.19;98.26;92864.50;4891425;29;20203;-76
2024/02/10 06:39:19;;;;;;;9.70;7.97;;;;;;;8.10;99.81;92863.88;4894687;29;20207;-77
2024/02/10 06:41:46;;;;;;;10.90;8.00;;;;;;;8.21;99.62;92862.50;4891398;29;20187;-79
2024/02/10 06:44:12;;;;;;;10.47;8.10;;;;;;;8.30;98.10;92871.66;4886788;29;20199;-78
2024/02/10 06:46:37;;;;;;;11.60;9.30;;;;;;;8.35;98.40;92863.34;4906424;29;20220;-77
2024/02/10 06:49:02;;;;;;;11.03;8.40;;;;;;;8.34;98.98;92864.31;4889779;29;20295;-77
2024/02/10 06:51:28;;;;;;;10.57;8.73;;;;;;;8.50;97.90;92871.69;4888500;29;20319;-79
2024/02/10 06:53:58;;;;;;;11.13;9.37;;;;;;;8.52;98.55;92864.53;4890669;29;20218;-78
2024/02/10 06:56:24;;;;;;;13.20;9.90;;;;;;;8.58;97.75;92868.13;4874188;29;20176;-77
2024/02/10 06:58:50;;;;;;;11.90;9.40;;;;;;;8.58;97.91;92863.72;4904764;29;20243;-78
2024/02/10 07:01:17;;;;;;;10.93;9.70;;;;;;;8.59;97.87;92862.72;4877453;29;20265;-78
2024/02/10 07:03:45;;;;;;;10.77;9.27;;;;;;;8.59;97.21;92857.56;4912878;29;20296;-77
2024/02/10 07:06:11;;;;;;;10.80;8.43;;;;;;;8.63;97.16;92860.53;4890547;29;21979;-78
2024/02/10 07:08:40;;;;;;;11.37;9.00;;;;;;;8.62;97.02;92851.97;4905712;29;20206;-77
2024/02/10 07:11:05;;;;;;;10.50;8.73;;;;;;;8.61;96.88;92850.38;4891886;29;20195;-79
2024/02/10 07:13:31;;;;;;;13.10;10.37;;;;;;;8.62;96.90;92844.22;4913182;29;20213;-79
2024/02/10 07:15:58;;;;;;;11.77;9.40;;;;;;;8.65;96.68;92846.38;4891088;29;20207;-79
2024/02/10 07:18:23;;;;;;;11.77;9.40;;;;;;;8.69;96.81;92851.97;4911532;29;20603;-77
2024/02/10 07:20:49;;;;;;;10.47;8.37;;;;;;;8.54;96.69;92839.25;4910792;29;20282;-78
2024/02/10 07:23:14;;;;;;;9.17;7.67;;;;;;;8.58;97.94;92850.81;4875570;29;20203;-78
2024/02/10 07:25:41;;;;;;;9.00;7.57;;;;;;;8.73;97.05;92850.56;4909154;29;20210;-80
2024/02/10 07:28:08;;;;;;;7.77;6.93;;;;;;;8.72;96.05;92854.16;4875664;29;20666;-79
2024/02/10 07:30:34;;;;;;;8.50;7.10;;;;;;;8.74;96.32;92865.09;4895946;29;20183;-79
2024/02/10 07:33:03;;;;;;;9.47;6.73;;;;;;;8.71;97.30;92863.69;4890829;29;20222;-80
2024/02/10 07:35:31;;;;;;;8.27;6.87;;;;;;;8.85;97.22;92861.91;4893147;29;20280;-77
2024/02/10 07:37:56;;;;;;;9.90;6.90;;;;;;;8.99;96.51;92860.06;4895003;29;20180;-80
2024/02/10 07:40:22;;;;;;;9.20;6.93;;;;;;;9.03;96.74;92858.69;4893160;29;20194;-78
2024/02/10 07:42:50;;;;;;;9.20;7.20;;;;;;;9.18;95.65;92843.66;4904288;29;20235;-77
2024/02/10 07:45:17;;;;;;;8.23;6.63;;;;;;;9.13;94.99;92851.28;4893978;29;20692;-79
2024/02/10 07:47:44;;;;;;;7.60;6.30;;;;;;;9.15;95.36;92849.28;4892393;29;20654;-80
2024/02/10 07:50:11;;;;;;;11.20;8.53;;;;;;;9.16;95.17;92848.25;4889115;29;20196;-81
2024/02/10 07:52:38;;;;;;;9.47;8.30;;;;;;;9.17;95.84;92843.88;4892565;29;20704;-78
2024/02/10 07:55:03;;;;;;;10.23;8.07;;;;;;;9.13;95.32;92845.31;4893662;29;20199;-79
2024/02/10 07:57:32;;;;;;;10.40;8.13;;;;;;;9.24;95.27;92845.44;4906996;29;20190;-80
2024/02/10 07:59:58;;;;;;;10.20;7.90;;;;;;;9.19;95.53;92834.94;4909058;29;20184;-79
2024/02/10 08:02:27;;;;;;;10.83;7.73;;;;;;;9.31;95.09;92851.41;4890096;29;20255;-80
2024/02/10 08:04:56;;;;;;;12.30;8.90;;;;;;;9.44;95.03;92854.94;4887534;29;20180;-80
2024/02/10 08:07:23;;;;;;;10.03;7.40;;;;;;;9.39;94.81;92852.19;4894186;29;20230;-79
2024/02/10 08:09:49;;;;;;;8.73;7.33;;;;;;;9.38;95.37;92858.38;4891210;29;20191;-77
2024/02/10 08:12:19;;;;;;;11.67;8.70;;;;;;;9.50;94.77;92856.69;4909223;29;20215;-78
2024/02/10 08:14:47;;;;;;;12.40;8.80;;;;;;;9.60;94.64;92851.88;4904940;29;20190;-78
2024/02/10 08:17:12;;;;;;;14.20;9.27;;;;;;;9.72;94.25;92845.03;4892455;29;20191;-77
2024/02/10 08:19:39;;;;;;;14.07;10.30;;;;;;;9.76;94.20;92846.22;4896136;29;20676;-80
2024/02/10 08:22:09;;;;;;;13.53;9.53;;;;;;;9.76;94.27;92846.22;4892154;29;20230;-78
2024/02/10 08:24:34;;;;;;;12.90;10.30;;;;;;;9.86;93.57;92841.34;4893642;29;20203;-78
2024/02/10 08:27:00;;;;;;;16.07;11.83;;;;;;;9.95;93.63;92844.50;4895042;29;20218;-79
2024/02/10 08:29:33;;;;;;;14.40;10.20;;;;;;;9.96;93.08;92845.28;4890447;29;20184;-80
2024/02/10 08:32:01;;;;;;;13.73;10.30;;;;;;;10.03;93.52;92848.63;4895048;29;20222;-79
2024/02/10 08:34:27;;;;;;;11.67;9.87;;;;;;;10.01;92.85;92846.25;4909799;29;20179;-78
2024/02/10 08:36:53;;;;;;;13.40;9.60;;;;;;;10.11;92.79;92845.78;4890544;29;20777;-80
2024/02/10 08:39:18;;;;;;;11.00;9.37;;;;;;;10.03;92.28;92833.09;4894805;29;20250;-80
2024/02/10 08:41:43;;;;;;;12.43;9.23;;;;;;;10.10;92.36;92839.03;4893467;29;20188;-79
2024/02/10 08:44:09;;;;;;;14.87;12.90;;;;;;;10.14;91.81;92833.19;4909900;29;20215;-77
2024/02/10 08:46:36;;;;;;;16.60;13.90;;;;;;;10.20;92.08;92828.97;4907368;29;20290;-78
2024/02/10 08:49:02;;;;;;;13.67;10.40;;;;;;;10.30;91.81;92831.13;4894577;29;21122;-80
2024/02/10 08:51:27;;;;;;;10.30;9.20;;;;;;;10.30;91.81;92829.31;4890373;29;20258;-78
2024/02/10 08:53:55;;;;;;;10.63;8.87;;;;;;;10.27;91.85;92827.16;4891632;29;20183;-77
2024/02/10 08:56:22;;;;;;;10.47;8.63;;;;;;;10.24;92.53;92829.34;4912007;29;20614;-78
2024/02/10 08:58:50;;;;;;;11.43;8.97;;;;;;;10.21;92.35;92817.59;4905228;29;20207;-80
2024/02/10 09:01:16;;;;;;;11.77;9.20;;;;;;;10.30;92.09;92820.75;4880192;29;20203;-78
2024/02/10 09:03:52;;;;;;;9.90;8.53;;;;;;;10.35;91.72;92823.50;4908634;29;20219;-78
2024/02/10 09:06:21;;;;;;;10.70;8.87;;;;;;;10.34;92.16;92825.31;4910896;29;20583;-79
2024/02/10 09:08:53;;;;;;;10.97;8.97;;;;;;;10.38;91.30;92823.88;4887488;29;20972;-80
2024/02/10 09:11:18;;;;;;;9.80;8.03;;;;;;;10.59;90.93;92824.47;4893807;29;20244;-79
2024/02/10 09:13:45;;;;;;;10.07;8.47;;;;;;;10.42;90.89;92827.63;4907042;29;20207;-77
2024/02/10 09:16:11;;;;;;;9.03;7.67;;;;;;;10.54;90.92;92832.91;4892041;29;20684;-80
2024/02/10 09:18:37;;;;;;;8.83;7.17;;;;;;;10.50;90.67;92842.91;4878136;29;20214;-80
2024/02/10 09:21:02;;;;;;;8.43;7.63;;;;;;;10.06;92.06;92855.97;4879515;29;20203;-79
2024/02/10 09:23:30;;;;;;;8.30;6.90;;;;;;;10.17;91.56;92866.50;4889855;29;20207;-78
2024/02/10 09:25:55;;;;;;;7.20;6.37;;;;;;;10.27;91.21;92873.84;4888916;29;20208;-79
2024/02/10 09:28:22;;;;;;;7.87;6.03;;;;;;;10.28;91.28;92872.03;4895044;29;20194;-79
2024/02/10 09:30:47;;;;;;;6.77;6.10;;;;;;;10.28;91.68;92874.63;4892055;29;20647;-78
2024/02/10 09:33:22;;;;;;;9.33;6.70;;;;;;;10.26;90.93;92869.66;4887464;29;20223;-79
2024/02/10 09:35:50;;;;;;;6.83;6.10;;;;;;;10.14;91.14;92863.50;4905270;29;20190;-79
2024/02/10 09:38:16;;;;;;;6.70;5.60;;;;;;;10.30;91.12;92863.03;4891674;29;20190;-79
2024/02/10 09:40:42;;;;;;;6.57;5.83;;;;;;;10.12;91.62;92863.72;4905451;29;20195;-79
2024/02/10 09:43:09;;;;;;;7.10;5.90;;;;;;;10.37;90.44;92866.38;4888519;29;20235;-78
2024/02/10 09:45:36;;;;;;;6.00;5.33;;;;;;;10.21;90.32;92857.28;4894678;29;20752;-78
2024/02/10 09:48:03;;;;;;;6.00;5.40;;;;;;;10.23;90.26;92854.50;4903681;29;20294;-79
2024/02/10 09:50:31;;;;;;;6.77;5.10;;;;;;;10.26;90.27;92850.72;4906770;29;20218;-80
2024/02/10 09:52:57;;;;;;;6.03;4.83;;;;;;;10.45;89.10;92845.38;4900878;29;20279;-79
2024/02/10 09:55:22;;;;;;;7.37;5.00;;;;;;;10.57;89.15;92839.47;4894787;29;20243;-78
2024/02/10 09:57:48;;;;;;;6.90;5.50;;;;;;;10.62;88.77;92844.84;4905381;29;20706;-78
2024/02/10 10:00:17;;;;;;;5.20;4.70;;;;;;;10.64;88.54;92840.22;4907385;29;20198;-78
2024/02/10 10:02:49;;;;;;;4.67;4.20;;;;;;;10.57;88.87;92839.47;4889293;29;20222;-79
2024/02/10 10:05:17;;;;;;;4.57;3.93;;;;;;;10.58;88.21;92841.84;4894171;29;20633;-78
2024/02/10 10:07:45;;;;;;;5.23;4.23;;;;;;;10.62;88.57;92839.63;4901182;29;20202;-79
2024/02/10 10:10:10;;;;;;;6.57;3.97;;;;;;;10.62;87.80;92832.66;4890302;29;20210;-77
2024/02/10 10:12:36;;;;;;;4.07;3.67;;;;;;;10.59;88.09;92827.88;4895124;29;20210;-78
2024/02/10 10:15:01;;;;;;;3.70;3.20;;;;;;;10.70;88.01;92829.78;4905435;29;20190;-79
2024/02/10 10:17:36;;;;;;;4.00;3.40;;;;;;;10.57;87.90;92829.09;4888955;29;20194;-78
2024/02/10 10:20:05;;;;;;;4.13;3.63;;;;;;;10.73;87.38;92825.94;4888073;29;20206;-79
2024/02/10 10:22:36;;;;;;;4.03;3.63;;;;;;;10.86;86.97;92828.41;4889941;29;20364;-79
2024/02/10 10:25:03;;;;;;;3.90;3.47;;;;;;;10.85;86.83;92819.03;4903592;29;20207;-79
2024/02/10 10:27:29;;;;;;;5.37;3.37;;;;;;;10.91;86.14;92817.38;4879238;29;20717;-79
2024/02/10 10:29:55;;;;;;;4.10;3.20;;;;;;;10.85;86.70;92816.44;4888356;29;20782;-84
2024/02/10 10:32:22;;;;;;;3.70;3.13;;;;;;;10.88;86.94;92808.25;4887897;29;20298;-80
2024/02/10 10:34:48;;;;;;;5.10;3.27;;;;;;;11.00;86.82;92810.91;4908435;29;20282;-79
2024/02/10 10:37:14;;;;;;;3.80;3.17;;;;;;;11.00;86.25;92809.09;4907240;29;20304;-79
2024/02/10 10:39:40;;;;;;;3.83;2.93;;;;;;;11.13;86.01;92812.53;4892765;29;20198;-78
2024/02/10 10:42:11;;;;;;;4.37;3.17;;;;;;;11.16;86.82;92805.13;4883852;29;20219;-80
2024/02/10 10:44:37;;;;;;;5.33;3.87;;;;;;;11.21;87.06;92794.06;4890410;29;20274;-79
2024/02/10 10:47:05;;;;;;;4.83;4.10;;;;;;;11.23;86.58;92792.84;4888938;29;20695;-79
2024/02/10 10:49:32;;;;;;;5.97;4.10;;;;;;;11.29;86.80;92783.38;4893755;29;20572;-79
2024/02/10 10:52:01;;;;;;;5.83;4.37;;;;;;;11.25;86.83;92777.84;4892798;29;20226;-79
2024/02/10 10:54:34;;;;;;;6.43;4.30;;;;;;;11.41;86.58;92765.25;4920387;29;20191;-78
2024/02/10 10:57:13;;;;;;;4.40;3.50;;;;;;;11.43;85.80;92766.63;4891915;29;20184;-79
2024/02/10 10:59:40;;;;;;;6.57;3.83;;;;;;;11.60;85.67;92752.00;4887023;29;20198;-78
2024/02/10 11:02:06;;;;;;;4.27;3.40;;;;;;;11.56;85.19;92757.84;4887502;29;20219;-81
2024/02/10 11:04:33;;;;;;;6.13;4.30;;;;;;;11.54;85.66;92745.06;4874819;29;20200;-78
2024/02/10 11:06:58;;;;;;;6.77;4.80;;;;;;;11.68;85.15;92739.72;4887328;29;20275;-79
2024/02/10 11:09:26;;;;;;;4.70;4.30;;;;;;;11.63;85.21;92732.56;4891225;29;20251;-79
2024/02/10 11:11:51;;;;;;;4.80;4.20;;;;;;;11.64;83.48;92718.53;4890273;29;20588;-79
2024/02/10 11:14:18;;;;;;;3.67;3.37;;;;;;;11.81;84.10;92723.94;4888889;29;20195;-79
2024/02/10 11:16:43;;;;;;;5.97;4.77;;;;;;;11.75;82.87;92714.38;4903469;29;20333;-78
2024/02/10 11:19:14;;;;;;;4.67;3.97;;;;;;;11.74;83.55;92710.19;4892797;29;20282;-80
2024/02/10 11:21:40;;;;;;;5.40;4.67;;;;;;;11.98;83.26;92700.66;4906751;29;20195;-79
2024/02/10 11:24:08;;;;;;;4.37;3.97;;;;;;;12.05;81.81;92703.94;4873736;29;20824;-79
2024/02/10 11:26:38;;;;;;;4.07;3.30;;;;;;;12.07;81.22;92699.31;4887410;29;20215;-79
2024/02/10 11:29:08;;;;;;;4.43;4.00;;;;;;;12.19;81.12;92693.09;4882031;29;20203;-78
2024/02/10 11:31:34;;;;;;;5.00;3.97;;;;;;;12.20;80.60;92686.09;4889146;29;20191;-79
2024/02/10 11:34:16;;;;;;;3.83;3.43;;;;;;;11.95;79.95;92688.91;4883887;29;20192;-80